sensor_id;sensor_type;location;lat;lon;timestamp;temperature;humidity
6008;DHT22;3032;49.484;11.112;2022-12-07T00:01:14;6.20;99.90
6008;DHT22;3032;49.484;11.112;2022-12-07T00:03:42;6.20;99.90
6008;DHT22;3032;49.484;11.112;2022-12-07T00:06:10;6.20;99.90
6008;DHT22;3032;49.484;11.112;2022-12-07T00:08:36;6.20;99.90
6008;DHT22;3032;49.484;11.112;2022-12-07T00:13:29;6.30;99.90
6008;DHT22;3032;49.484;11.112;2022-12-07T00:15:54;6.20;99.90
6008;DHT22;3032;49.484;11.112;2022-12-07T00:18:20;6.10;99.90
6008;DHT22;3032;49.484;11.112;2022-12-07T00:20:45;6.10;99.90
6008;DHT22;3032;49.484;11.112;2022-12-07T00:23:11;6.10;99.90
6008;DHT22;3032;49.484;11.112;2022-12-07T00:25:36;6.10;99.90
6008;DHT22;3032;49.484;11.112;2022-12-07T00:28:02;6.20;99.90
6008;DHT22;3032;49.484;11.112;2022-12-07T00:30:28;6.10;99.90
6008;DHT22;3032;49.484;11.112;2022-12-07T00:32:53;5.70;99.90
6008;DHT22;3032;49.484;11.112;2022-12-07T00:35:19;5.70;99.90
6008;DHT22;3032;49.484;11.112;2022-12-07T00:37:44;5.90;99.90
6008;DHT22;3032;49.484;11.112;2022-12-07T00:40:10;5.90;99.90
6008;DHT22;3032;49.484;11.112;2022-12-07T00:42:36;5.80;99.90
6008;DHT22;3032;49.484;11.112;2022-12-07T00:45:01;5.90;99.90
6008;DHT22;3032;49.484;11.112;2022-12-07T00:47:27;5.90;99.90
6008;DHT22;3032;49.484;11.112;2022-12-07T00:49:52;5.90;99.90
6008;DHT22;3032;49.484;11.112;2022-12-07T00:52:18;5.70;99.90
6008;DHT22;3032;49.484;11.112;2022-12-07T00:54:43;5.80;99.90
6008;DHT22;3032;49.484;11.112;2022-12-07T00:57:09;5.70;99.90
6008;DHT22;3032;49.484;11.112;2022-12-07T00:59:34;5.80;99.90
6008;DHT22;3032;49.484;11.112;2022-12-07T01:02:00;5.90;99.90
6008;DHT22;3032;49.484;11.112;2022-12-07T01:04:25;5.80;99.90
6008;DHT22;3032;49.484;11.112;2022-12-07T01:06:51;5.60;99.90
6008;DHT22;3032;49.484;11.112;2022-12-07T01:09:16;5.60;99.90
6008;DHT22;3032;49.484;11.112;2022-12-07T01:11:42;5.70;99.90
6008;DHT22;3032;49.484;11.112;2022-12-07T01:14:08;5.70;99.90
6008;DHT22;3032;49.484;11.112;2022-12-07T01:16:34;5.70;99.90
6008;DHT22;3032;49.484;11.112;2022-12-07T01:19:01;5.70;99.90
6008;DHT22;3032;49.484;11.112;2022-12-07T01:21:45;5.90;99.90
6008;DHT22;3032;49.484;11.112;2022-12-07T01:24:30;5.80;99.90
6008;DHT22;3032;49.484;11.112;2022-12-07T01:27:14;5.70;99.90
6008;DHT22;3032;49.484;11.112;2022-12-07T01:29:59;5.70;99.90
6008;DHT22;3032;49.484;11.112;2022-12-07T01:32:43;5.80;99.90
6008;DHT22;3032;49.484;11.112;2022-12-07T01:35:27;5.90;99.90
6008;DHT22;3032;49.484;11.112;2022-12-07T01:38:11;5.90;99.90
6008;DHT22;3032;49.484;11.112;2022-12-07T01:40:56;6.00;99.90
6008;DHT22;3032;49.484;11.112;2022-12-07T01:44:19;6.00;99.90
6008;DHT22;3032;49.484;11.112;2022-12-07T01:47:03;6.00;99.90
6008;DHT22;3032;49.484;11.112;2022-12-07T01:49:48;5.80;99.90
6008;DHT22;3032;49.484;11.112;2022-12-07T01:52:34;5.60;99.90
6008;DHT22;3032;49.484;11.112;2022-12-07T01:55:20;5.60;99.90
6008;DHT22;3032;49.484;11.112;2022-12-07T01:58:04;5.80;99.90
6008;DHT22;3032;49.484;11.112;2022-12-07T02:00:49;6.00;99.90
6008;DHT22;3032;49.484;11.112;2022-12-07T02:03:39;6.00;99.90
6008;DHT22;3032;49.484;11.112;2022-12-07T02:06:25;6.20;99.90
6008;DHT22;3032;49.484;11.112;2022-12-07T02:09:10;6.10;99.90
6008;DHT22;3032;49.484;11.112;2022-12-07T02:11:55;6.10;99.90
6008;DHT22;3032;49.484;11.112;2022-12-07T02:14:39;6.00;99.90
6008;DHT22;3032;49.484;11.112;2022-12-07T02:17:25;6.00;99.90
6008;DHT22;3032;49.484;11.112;2022-12-07T02:23:34;5.90;99.90
6008;DHT22;3032;49.484;11.112;2022-12-07T02:29:35;5.90;99.90
6008;DHT22;3032;49.484;11.112;2022-12-07T02:32:44;5.90;99.90
6008;DHT22;3032;49.484;11.112;2022-12-07T02:35:41;5.90;99.90
6008;DHT22;3032;49.484;11.112;2022-12-07T02:38:35;5.90;99.90
6008;DHT22;3032;49.484;11.112;2022-12-07T02:41:40;5.80;99.90
6008;DHT22;3032;49.484;11.112;2022-12-07T02:44:28;5.70;99.90
6008;DHT22;3032;49.484;11.112;2022-12-07T02:47:16;5.60;99.90
6008;DHT22;3032;49.484;11.112;2022-12-07T02:50:04;5.50;99.90
6008;DHT22;3032;49.484;11.112;2022-12-07T02:52:49;5.60;99.90
6008;DHT22;3032;49.484;11.112;2022-12-07T02:55:38;5.80;99.90
6008;DHT22;3032;49.484;11.112;2022-12-07T02:58:39;5.80;99.90
6008;DHT22;3032;49.484;11.112;2022-12-07T03:10:22;5.70;99.90
6008;DHT22;3032;49.484;11.112;2022-12-07T03:13:25;5.50;99.90
6008;DHT22;3032;49.484;11.112;2022-12-07T03:16:33;4.70;99.90
6008;DHT22;3032;49.484;11.112;2022-12-07T03:42:31;5.60;99.90
6008;DHT22;3032;49.484;11.112;2022-12-07T03:45:00;5.80;99.90
6008;DHT22;3032;49.484;11.112;2022-12-07T03:47:31;5.90;99.90
6008;DHT22;3032;49.484;11.112;2022-12-07T03:50:11;5.90;99.90
6008;DHT22;3032;49.484;11.112;2022-12-07T03:56:02;5.90;99.90
6008;DHT22;3032;49.484;11.112;2022-12-07T03:58:28;5.80;99.90
6008;DHT22;3032;49.484;11.112;2022-12-07T04:00:55;5.70;99.90
6008;DHT22;3032;49.484;11.112;2022-12-07T04:03:21;5.60;99.90
6008;DHT22;3032;49.484;11.112;2022-12-07T04:05:47;5.50;99.90
6008;DHT22;3032;49.484;11.112;2022-12-07T04:08:12;5.50;99.90
6008;DHT22;3032;49.484;11.112;2022-12-07T04:10:38;5.40;99.90
6008;DHT22;3032;49.484;11.112;2022-12-07T04:13:04;5.20;99.90
6008;DHT22;3032;49.484;11.112;2022-12-07T04:15:29;5.10;99.90
6008;DHT22;3032;49.484;11.112;2022-12-07T04:17:55;5.10;99.90
6008;DHT22;3032;49.484;11.112;2022-12-07T04:20:20;5.00;99.90
6008;DHT22;3032;49.484;11.112;2022-12-07T04:22:46;5.00;99.90
6008;DHT22;3032;49.484;11.112;2022-12-07T04:25:12;4.90;99.90
6008;DHT22;3032;49.484;11.112;2022-12-07T04:27:37;4.90;99.90
6008;DHT22;3032;49.484;11.112;2022-12-07T04:30:04;4.80;99.90
6008;DHT22;3032;49.484;11.112;2022-12-07T04:32:29;4.80;99.90
6008;DHT22;3032;49.484;11.112;2022-12-07T04:34:55;4.80;99.90
6008;DHT22;3032;49.484;11.112;2022-12-07T04:37:20;4.80;99.90
6008;DHT22;3032;49.484;11.112;2022-12-07T04:39:46;4.90;99.90
6008;DHT22;3032;49.484;11.112;2022-12-07T04:42:12;5.00;99.90
6008;DHT22;3032;49.484;11.112;2022-12-07T04:44:38;5.00;99.90
6008;DHT22;3032;49.484;11.112;2022-12-07T04:47:04;5.00;99.90
6008;DHT22;3032;49.484;11.112;2022-12-07T04:49:29;5.10;99.90
6008;DHT22;3032;49.484;11.112;2022-12-07T04:51:55;5.20;99.90
6008;DHT22;3032;49.484;11.112;2022-12-07T04:54:21;5.00;99.90
6008;DHT22;3032;49.484;11.112;2022-12-07T04:56:46;5.00;99.90
6008;DHT22;3032;49.484;11.112;2022-12-07T04:59:14;5.00;99.90
6008;DHT22;3032;49.484;11.112;2022-12-07T05:01:40;5.10;99.90
6008;DHT22;3032;49.484;11.112;2022-12-07T05:04:05;5.10;99.90
6008;DHT22;3032;49.484;11.112;2022-12-07T05:06:31;5.10;99.90
6008;DHT22;3032;49.484;11.112;2022-12-07T05:08:57;5.20;99.90
6008;DHT22;3032;49.484;11.112;2022-12-07T05:11:23;5.30;99.90
6008;DHT22;3032;49.484;11.112;2022-12-07T05:14:10;5.30;99.90
6008;DHT22;3032;49.484;11.112;2022-12-07T05:16:37;5.30;99.90
6008;DHT22;3032;49.484;11.112;2022-12-07T05:19:03;5.30;99.90
6008;DHT22;3032;49.484;11.112;2022-12-07T05:21:30;5.50;99.90
6008;DHT22;3032;49.484;11.112;2022-12-07T05:23:55;5.40;99.90
6008;DHT22;3032;49.484;11.112;2022-12-07T05:26:21;5.50;99.90
6008;DHT22;3032;49.484;11.112;2022-12-07T05:28:51;5.50;99.90
6008;DHT22;3032;49.484;11.112;2022-12-07T05:31:16;5.30;99.90
6008;DHT22;3032;49.484;11.112;2022-12-07T05:33:42;5.20;99.90
6008;DHT22;3032;49.484;11.112;2022-12-07T05:36:07;5.20;99.90
6008;DHT22;3032;49.484;11.112;2022-12-07T05:38:33;5.20;99.90
6008;DHT22;3032;49.484;11.112;2022-12-07T05:41:03;4.90;99.90
6008;DHT22;3032;49.484;11.112;2022-12-07T05:43:30;5.10;99.90
6008;DHT22;3032;49.484;11.112;2022-12-07T05:45:57;5.20;99.90
6008;DHT22;3032;49.484;11.112;2022-12-07T05:48:22;5.30;99.90
6008;DHT22;3032;49.484;11.112;2022-12-07T05:50:49;5.30;99.90
6008;DHT22;3032;49.484;11.112;2022-12-07T05:53:14;5.20;99.90
6008;DHT22;3032;49.484;11.112;2022-12-07T05:55:40;5.20;99.90
6008;DHT22;3032;49.484;11.112;2022-12-07T05:58:06;5.00;99.90
6008;DHT22;3032;49.484;11.112;2022-12-07T06:00:50;4.90;99.90
6008;DHT22;3032;49.484;11.112;2022-12-07T06:03:15;5.00;99.90
6008;DHT22;3032;49.484;11.112;2022-12-07T06:05:41;5.00;99.90
6008;DHT22;3032;49.484;11.112;2022-12-07T06:08:07;5.00;99.90
6008;DHT22;3032;49.484;11.112;2022-12-07T06:10:33;4.90;99.90
6008;DHT22;3032;49.484;11.112;2022-12-07T06:15:37;5.00;99.90
6008;DHT22;3032;49.484;11.112;2022-12-07T06:18:02;4.90;99.90
6008;DHT22;3032;49.484;11.112;2022-12-07T06:20:28;5.00;99.90
6008;DHT22;3032;49.484;11.112;2022-12-07T06:22:53;5.10;99.90
6008;DHT22;3032;49.484;11.112;2022-12-07T06:25:19;5.30;99.90
6008;DHT22;3032;49.484;11.112;2022-12-07T06:27:44;5.50;99.90
6008;DHT22;3032;49.484;11.112;2022-12-07T06:30:10;5.40;99.90
6008;DHT22;3032;49.484;11.112;2022-12-07T06:32:36;5.40;99.90
6008;DHT22;3032;49.484;11.112;2022-12-07T06:35:03;5.50;99.90
6008;DHT22;3032;49.484;11.112;2022-12-07T06:37:28;5.60;99.90
6008;DHT22;3032;49.484;11.112;2022-12-07T06:39:54;5.50;99.90
6008;DHT22;3032;49.484;11.112;2022-12-07T06:42:19;5.10;99.90
6008;DHT22;3032;49.484;11.112;2022-12-07T06:44:45;5.00;99.90
6008;DHT22;3032;49.484;11.112;2022-12-07T06:47:10;4.70;99.90
6008;DHT22;3032;49.484;11.112;2022-12-07T06:49:37;4.80;99.90
6008;DHT22;3032;49.484;11.112;2022-12-07T06:52:02;4.90;99.90
6008;DHT22;3032;49.484;11.112;2022-12-07T06:54:30;5.20;99.90
6008;DHT22;3032;49.484;11.112;2022-12-07T06:56:55;5.30;99.90
6008;DHT22;3032;49.484;11.112;2022-12-07T06:59:21;5.30;99.90
6008;DHT22;3032;49.484;11.112;2022-12-07T07:01:47;5.40;99.90
6008;DHT22;3032;49.484;11.112;2022-12-07T07:04:12;5.50;99.90
6008;DHT22;3032;49.484;11.112;2022-12-07T07:06:38;5.60;99.90
6008;DHT22;3032;49.484;11.112;2022-12-07T07:09:04;5.60;99.90
6008;DHT22;3032;49.484;11.112;2022-12-07T07:11:29;5.60;99.90
6008;DHT22;3032;49.484;11.112;2022-12-07T07:13:55;5.60;99.90
6008;DHT22;3032;49.484;11.112;2022-12-07T07:16:23;5.80;99.90
6008;DHT22;3032;49.484;11.112;2022-12-07T07:18:48;5.80;99.90
6008;DHT22;3032;49.484;11.112;2022-12-07T07:21:14;6.00;99.90
6008;DHT22;3032;49.484;11.112;2022-12-07T07:23:39;6.00;99.90
6008;DHT22;3032;49.484;11.112;2022-12-07T07:26:05;5.80;99.90
6008;DHT22;3032;49.484;11.112;2022-12-07T07:28:30;5.80;99.90
6008;DHT22;3032;49.484;11.112;2022-12-07T07:30:56;5.80;99.90
6008;DHT22;3032;49.484;11.112;2022-12-07T07:33:22;5.70;99.90
6008;DHT22;3032;49.484;11.112;2022-12-07T07:35:47;5.60;99.90
6008;DHT22;3032;49.484;11.112;2022-12-07T07:38:13;5.70;99.90
6008;DHT22;3032;49.484;11.112;2022-12-07T07:40:38;5.80;99.90
6008;DHT22;3032;49.484;11.112;2022-12-07T07:43:04;5.90;99.90
6008;DHT22;3032;49.484;11.112;2022-12-07T07:45:29;5.80;99.90
6008;DHT22;3032;49.484;11.112;2022-12-07T07:47:55;5.50;99.90
6008;DHT22;3032;49.484;11.112;2022-12-07T07:50:21;5.50;99.90
6008;DHT22;3032;49.484;11.112;2022-12-07T07:52:46;5.50;99.90
6008;DHT22;3032;49.484;11.112;2022-12-07T07:55:13;5.40;99.90
6008;DHT22;3032;49.484;11.112;2022-12-07T07:57:40;5.20;99.90
6008;DHT22;3032;49.484;11.112;2022-12-07T08:00:11;5.20;99.90
6008;DHT22;3032;49.484;11.112;2022-12-07T08:02:37;5.00;99.90
6008;DHT22;3032;49.484;11.112;2022-12-07T08:05:03;5.00;99.90
6008;DHT22;3032;49.484;11.112;2022-12-07T08:07:28;4.90;99.90
6008;DHT22;3032;49.484;11.112;2022-12-07T08:09:54;4.80;99.90
6008;DHT22;3032;49.484;11.112;2022-12-07T08:12:20;4.70;99.90
6008;DHT22;3032;49.484;11.112;2022-12-07T08:14:45;5.10;99.90
6008;DHT22;3032;49.484;11.112;2022-12-07T08:17:11;5.10;99.90
6008;DHT22;3032;49.484;11.112;2022-12-07T08:19:37;5.20;99.90
6008;DHT22;3032;49.484;11.112;2022-12-07T08:22:03;5.30;99.90
6008;DHT22;3032;49.484;11.112;2022-12-07T08:24:29;5.20;99.90
6008;DHT22;3032;49.484;11.112;2022-12-07T08:26:54;4.90;99.90
6008;DHT22;3032;49.484;11.112;2022-12-07T08:29:20;4.90;99.90
6008;DHT22;3032;49.484;11.112;2022-12-07T08:31:46;4.80;99.90
6008;DHT22;3032;49.484;11.112;2022-12-07T08:34:12;4.90;99.90
6008;DHT22;3032;49.484;11.112;2022-12-07T08:36:38;5.00;99.90
6008;DHT22;3032;49.484;11.112;2022-12-07T08:39:04;5.20;99.90
6008;DHT22;3032;49.484;11.112;2022-12-07T08:41:29;5.30;99.90
6008;DHT22;3032;49.484;11.112;2022-12-07T08:43:55;5.50;99.90
6008;DHT22;3032;49.484;11.112;2022-12-07T08:46:29;5.40;99.90
6008;DHT22;3032;49.484;11.112;2022-12-07T08:49:19;6.00;99.90
6008;DHT22;3032;49.484;11.112;2022-12-07T08:51:47;6.30;99.90
6008;DHT22;3032;49.484;11.112;2022-12-07T08:54:15;5.80;99.90
6008;DHT22;3032;49.484;11.112;2022-12-07T08:56:43;5.80;99.90
6008;DHT22;3032;49.484;11.112;2022-12-07T08:59:09;5.60;99.90
6008;DHT22;3032;49.484;11.112;2022-12-07T09:01:35;5.70;99.90
6008;DHT22;3032;49.484;11.112;2022-12-07T09:04:01;5.50;99.90
6008;DHT22;3032;49.484;11.112;2022-12-07T09:06:27;5.50;99.90
6008;DHT22;3032;49.484;11.112;2022-12-07T09:08:57;5.70;99.90
6008;DHT22;3032;49.484;11.112;2022-12-07T09:11:24;5.40;99.90
6008;DHT22;3032;49.484;11.112;2022-12-07T09:13:49;5.40;99.90
6008;DHT22;3032;49.484;11.112;2022-12-07T09:16:15;5.30;99.90
6008;DHT22;3032;49.484;11.112;2022-12-07T09:18:40;5.00;99.90
6008;DHT22;3032;49.484;11.112;2022-12-07T09:21:07;5.70;99.90
6008;DHT22;3032;49.484;11.112;2022-12-07T09:23:33;5.20;99.90
6008;DHT22;3032;49.484;11.112;2022-12-07T09:26:03;5.10;99.90
6008;DHT22;3032;49.484;11.112;2022-12-07T09:28:30;5.00;99.90
6008;DHT22;3032;49.484;11.112;2022-12-07T09:30:56;5.10;99.90
6008;DHT22;3032;49.484;11.112;2022-12-07T09:33:22;4.90;99.90
6008;DHT22;3032;49.484;11.112;2022-12-07T09:35:48;5.00;99.90
6008;DHT22;3032;49.484;11.112;2022-12-07T09:38:15;5.00;99.90
6008;DHT22;3032;49.484;11.112;2022-12-07T09:40:41;5.10;99.90
6008;DHT22;3032;49.484;11.112;2022-12-07T09:43:22;5.20;99.90
6008;DHT22;3032;49.484;11.112;2022-12-07T09:45:51;5.20;99.90
6008;DHT22;3032;49.484;11.112;2022-12-07T09:48:21;5.30;99.90
6008;DHT22;3032;49.484;11.112;2022-12-07T09:50:48;5.30;99.90
6008;DHT22;3032;49.484;11.112;2022-12-07T09:53:27;5.40;99.90
6008;DHT22;3032;49.484;11.112;2022-12-07T09:55:53;5.70;99.90
6008;DHT22;3032;49.484;11.112;2022-12-07T09:58:24;5.70;99.90
6008;DHT22;3032;49.484;11.112;2022-12-07T10:00:59;5.80;99.90
6008;DHT22;3032;49.484;11.112;2022-12-07T10:03:28;5.80;99.90
6008;DHT22;3032;49.484;11.112;2022-12-07T10:05:54;5.40;99.90
6008;DHT22;3032;49.484;11.112;2022-12-07T10:08:20;5.30;99.90
6008;DHT22;3032;49.484;11.112;2022-12-07T10:10:51;5.20;99.90
6008;DHT22;3032;49.484;11.112;2022-12-07T10:13:22;5.40;99.90
6008;DHT22;3032;49.484;11.112;2022-12-07T10:15:58;5.50;99.90
6008;DHT22;3032;49.484;11.112;2022-12-07T10:21:16;5.90;99.90
6008;DHT22;3032;49.484;11.112;2022-12-07T10:23:59;5.90;99.90
6008;DHT22;3032;49.484;11.112;2022-12-07T10:26:32;6.00;99.90
6008;DHT22;3032;49.484;11.112;2022-12-07T10:29:22;6.00;99.90
6008;DHT22;3032;49.484;11.112;2022-12-07T10:34:29;6.10;99.90
6008;DHT22;3032;49.484;11.112;2022-12-07T10:42:31;6.00;99.90
6008;DHT22;3032;49.484;11.112;2022-12-07T10:48:15;5.60;99.90
6008;DHT22;3032;49.484;11.112;2022-12-07T10:53:40;5.60;99.90
6008;DHT22;3032;49.484;11.112;2022-12-07T11:01:42;5.60;99.90
6008;DHT22;3032;49.484;11.112;2022-12-07T11:15:01;5.70;99.90
6008;DHT22;3032;49.484;11.112;2022-12-07T11:29:09;6.00;99.90
6008;DHT22;3032;49.484;11.112;2022-12-07T11:37:19;6.00;99.90
6008;DHT22;3032;49.484;11.112;2022-12-07T11:39:51;5.90;99.90
6008;DHT22;3032;49.484;11.112;2022-12-07T11:42:25;5.90;99.90
6008;DHT22;3032;49.484;11.112;2022-12-07T11:45:10;5.80;99.90
6008;DHT22;3032;49.484;11.112;2022-12-07T11:50:45;5.60;99.90
6008;DHT22;3032;49.484;11.112;2022-12-07T11:53:19;5.80;99.90
6008;DHT22;3032;49.484;11.112;2022-12-07T11:56:01;6.50;99.90
6008;DHT22;3032;49.484;11.112;2022-12-07T12:03:56;6.10;99.90
6008;DHT22;3032;49.484;11.112;2022-12-07T12:06:23;6.00;99.90
6008;DHT22;3032;49.484;11.112;2022-12-07T12:09:01;5.90;99.90
6008;DHT22;3032;49.484;11.112;2022-12-07T12:22:20;6.20;99.90
6008;DHT22;3032;49.484;11.112;2022-12-07T12:24:48;6.40;99.90
6008;DHT22;3032;49.484;11.112;2022-12-07T12:27:29;6.40;99.90
6008;DHT22;3032;49.484;11.112;2022-12-07T12:29:58;6.30;99.90
6008;DHT22;3032;49.484;11.112;2022-12-07T12:32:39;6.20;99.90
6008;DHT22;3032;49.484;11.112;2022-12-07T12:35:34;6.10;99.90
6008;DHT22;3032;49.484;11.112;2022-12-07T12:40:57;6.10;99.90
6008;DHT22;3032;49.484;11.112;2022-12-07T12:43:45;6.30;99.90
6008;DHT22;3032;49.484;11.112;2022-12-07T12:51:43;6.30;99.90
6008;DHT22;3032;49.484;11.112;2022-12-07T12:54:25;6.10;99.90
6008;DHT22;3032;49.484;11.112;2022-12-07T12:57:20;6.00;99.90
6008;DHT22;3032;49.484;11.112;2022-12-07T13:02:34;5.90;99.90
6008;DHT22;3032;49.484;11.112;2022-12-07T13:07:49;6.00;99.90
6008;DHT22;3032;49.484;11.112;2022-12-07T13:13:02;6.20;99.90
6008;DHT22;3032;49.484;11.112;2022-12-07T13:21:42;5.90;99.90
6008;DHT22;3032;49.484;11.112;2022-12-07T13:26:23;5.80;99.90
6008;DHT22;3032;49.484;11.112;2022-12-07T13:29:11;6.00;99.90
6008;DHT22;3032;49.484;11.112;2022-12-07T13:31:41;6.00;99.90
6008;DHT22;3032;49.484;11.112;2022-12-07T13:34:34;6.00;99.90
6008;DHT22;3032;49.484;11.112;2022-12-07T13:37:02;6.00;99.90
6008;DHT22;3032;49.484;11.112;2022-12-07T13:39:32;6.10;99.90
6008;DHT22;3032;49.484;11.112;2022-12-07T13:41:59;6.10;99.90
6008;DHT22;3032;49.484;11.112;2022-12-07T13:44:33;6.20;99.90
6008;DHT22;3032;49.484;11.112;2022-12-07T13:47:29;6.30;99.90
6008;DHT22;3032;49.484;11.112;2022-12-07T13:49:57;6.30;99.90
6008;DHT22;3032;49.484;11.112;2022-12-07T13:52:26;5.80;99.90
6008;DHT22;3032;49.484;11.112;2022-12-07T13:55:01;5.80;99.90
6008;DHT22;3032;49.484;11.112;2022-12-07T13:57:30;5.80;99.90
6008;DHT22;3032;49.484;11.112;2022-12-07T13:59:57;6.00;99.90
6008;DHT22;3032;49.484;11.112;2022-12-07T14:02:31;6.00;99.90
6008;DHT22;3032;49.484;11.112;2022-12-07T14:08:25;6.60;99.90
6008;DHT22;3032;49.484;11.112;2022-12-07T14:16:02;6.70;99.90
6008;DHT22;3032;49.484;11.112;2022-12-07T14:18:38;6.80;99.90
6008;DHT22;3032;49.484;11.112;2022-12-07T14:23:38;6.50;99.90
6008;DHT22;3032;49.484;11.112;2022-12-07T14:26:14;6.50;99.90
6008;DHT22;3032;49.484;11.112;2022-12-07T14:28:41;6.40;99.90
6008;DHT22;3032;49.484;11.112;2022-12-07T14:31:25;6.60;99.90
6008;DHT22;3032;49.484;11.112;2022-12-07T14:33:50;6.80;99.90
6008;DHT22;3032;49.484;11.112;2022-12-07T14:36:16;6.70;99.90
6008;DHT22;3032;49.484;11.112;2022-12-07T14:38:41;7.20;99.90
6008;DHT22;3032;49.484;11.112;2022-12-07T14:41:14;6.70;99.90
6008;DHT22;3032;49.484;11.112;2022-12-07T14:43:59;6.50;99.90
6008;DHT22;3032;49.484;11.112;2022-12-07T14:46:25;5.80;99.90
6008;DHT22;3032;49.484;11.112;2022-12-07T14:48:50;5.60;99.90
6008;DHT22;3032;49.484;11.112;2022-12-07T14:51:16;5.50;99.90
6008;DHT22;3032;49.484;11.112;2022-12-07T14:53:46;5.20;99.90
6008;DHT22;3032;49.484;11.112;2022-12-07T14:56:13;5.20;99.90
6008;DHT22;3032;49.484;11.112;2022-12-07T14:58:39;5.20;99.90
6008;DHT22;3032;49.484;11.112;2022-12-07T15:01:05;5.00;99.90
6008;DHT22;3032;49.484;11.112;2022-12-07T15:03:31;5.00;99.90
6008;DHT22;3032;49.484;11.112;2022-12-07T15:05:56;5.10;99.90
6008;DHT22;3032;49.484;11.112;2022-12-07T15:08:22;5.00;99.90
6008;DHT22;3032;49.484;11.112;2022-12-07T15:10:48;5.30;99.90
6008;DHT22;3032;49.484;11.112;2022-12-07T15:13:13;5.50;99.90
6008;DHT22;3032;49.484;11.112;2022-12-07T15:15:57;5.60;99.90
6008;DHT22;3032;49.484;11.112;2022-12-07T15:18:23;5.80;99.90
6008;DHT22;3032;49.484;11.112;2022-12-07T15:20:50;5.90;99.90
6008;DHT22;3032;49.484;11.112;2022-12-07T15:23:15;5.90;99.90
6008;DHT22;3032;49.484;11.112;2022-12-07T15:25:43;6.00;99.90
6008;DHT22;3032;49.484;11.112;2022-12-07T15:28:09;6.10;99.90
6008;DHT22;3032;49.484;11.112;2022-12-07T15:30:37;6.20;99.90
6008;DHT22;3032;49.484;11.112;2022-12-07T15:33:02;6.10;99.90
6008;DHT22;3032;49.484;11.112;2022-12-07T15:35:28;6.10;99.90
6008;DHT22;3032;49.484;11.112;2022-12-07T15:37:53;6.00;99.90
6008;DHT22;3032;49.484;11.112;2022-12-07T15:40:19;6.20;99.90
6008;DHT22;3032;49.484;11.112;2022-12-07T15:42:45;6.20;99.90
6008;DHT22;3032;49.484;11.112;2022-12-07T15:45:10;6.30;99.90
6008;DHT22;3032;49.484;11.112;2022-12-07T15:47:41;6.40;99.90
6008;DHT22;3032;49.484;11.112;2022-12-07T15:50:10;6.50;99.90
6008;DHT22;3032;49.484;11.112;2022-12-07T15:52:36;6.60;99.90
6008;DHT22;3032;49.484;11.112;2022-12-07T15:55:02;6.70;99.90
6008;DHT22;3032;49.484;11.112;2022-12-07T15:57:29;6.50;99.90
6008;DHT22;3032;49.484;11.112;2022-12-07T15:59:55;6.40;99.90
6008;DHT22;3032;49.484;11.112;2022-12-07T16:02:21;6.30;99.90
6008;DHT22;3032;49.484;11.112;2022-12-07T16:04:47;6.00;99.90
6008;DHT22;3032;49.484;11.112;2022-12-07T16:07:13;5.50;99.90
6008;DHT22;3032;49.484;11.112;2022-12-07T16:09:44;5.40;99.90
6008;DHT22;3032;49.484;11.112;2022-12-07T16:12:10;5.30;99.90
6008;DHT22;3032;49.484;11.112;2022-12-07T16:14:36;5.50;99.90
6008;DHT22;3032;49.484;11.112;2022-12-07T16:17:02;5.80;99.90
6008;DHT22;3032;49.484;11.112;2022-12-07T16:19:30;6.00;99.90
6008;DHT22;3032;49.484;11.112;2022-12-07T16:21:55;6.10;99.90
6008;DHT22;3032;49.484;11.112;2022-12-07T16:24:21;6.40;99.90
6008;DHT22;3032;49.484;11.112;2022-12-07T16:26:47;6.30;99.90
6008;DHT22;3032;49.484;11.112;2022-12-07T16:29:14;6.40;99.90
6008;DHT22;3032;49.484;11.112;2022-12-07T16:31:40;6.40;99.90
6008;DHT22;3032;49.484;11.112;2022-12-07T16:34:06;6.30;99.90
6008;DHT22;3032;49.484;11.112;2022-12-07T16:36:32;6.20;99.90
6008;DHT22;3032;49.484;11.112;2022-12-07T16:38:59;6.00;99.90
6008;DHT22;3032;49.484;11.112;2022-12-07T16:41:25;6.00;99.90
6008;DHT22;3032;49.484;11.112;2022-12-07T16:43:51;5.90;99.90
6008;DHT22;3032;49.484;11.112;2022-12-07T16:46:16;6.70;99.90
6008;DHT22;3032;49.484;11.112;2022-12-07T16:48:42;5.70;99.90
6008;DHT22;3032;49.484;11.112;2022-12-07T16:51:10;5.80;99.90
6008;DHT22;3032;49.484;11.112;2022-12-07T16:53:37;5.70;99.90
6008;DHT22;3032;49.484;11.112;2022-12-07T16:56:03;5.90;99.90
6008;DHT22;3032;49.484;11.112;2022-12-07T16:58:30;6.00;99.90
6008;DHT22;3032;49.484;11.112;2022-12-07T17:00:56;6.00;99.90
6008;DHT22;3032;49.484;11.112;2022-12-07T17:03:22;6.00;99.90
6008;DHT22;3032;49.484;11.112;2022-12-07T17:05:48;6.10;99.90
6008;DHT22;3032;49.484;11.112;2022-12-07T17:08:14;6.20;99.90
6008;DHT22;3032;49.484;11.112;2022-12-07T17:10:42;6.30;99.90
6008;DHT22;3032;49.484;11.112;2022-12-07T17:13:09;6.30;99.90
6008;DHT22;3032;49.484;11.112;2022-12-07T17:16:01;6.30;99.90
6008;DHT22;3032;49.484;11.112;2022-12-07T17:18:30;6.20;99.90
6008;DHT22;3032;49.484;11.112;2022-12-07T17:21:02;6.20;99.90
6008;DHT22;3032;49.484;11.112;2022-12-07T17:23:29;6.30;99.90
6008;DHT22;3032;49.484;11.112;2022-12-07T17:25:55;6.10;99.90
6008;DHT22;3032;49.484;11.112;2022-12-07T17:28:21;6.20;99.90
6008;DHT22;3032;49.484;11.112;2022-12-07T17:30:46;6.30;99.90
6008;DHT22;3032;49.484;11.112;2022-12-07T17:33:12;6.40;99.90
6008;DHT22;3032;49.484;11.112;2022-12-07T17:35:38;6.50;99.90
6008;DHT22;3032;49.484;11.112;2022-12-07T17:38:03;6.50;99.90
6008;DHT22;3032;49.484;11.112;2022-12-07T17:40:29;6.50;99.90
6008;DHT22;3032;49.484;11.112;2022-12-07T17:42:54;6.60;99.90
6008;DHT22;3032;49.484;11.112;2022-12-07T17:45:20;6.60;99.90
6008;DHT22;3032;49.484;11.112;2022-12-07T17:47:46;6.70;99.90
6008;DHT22;3032;49.484;11.112;2022-12-07T17:50:11;6.60;99.90
6008;DHT22;3032;49.484;11.112;2022-12-07T17:52:38;6.60;99.90
6008;DHT22;3032;49.484;11.112;2022-12-07T17:55:23;6.60;99.90
6008;DHT22;3032;49.484;11.112;2022-12-07T17:57:48;6.50;99.90
6008;DHT22;3032;49.484;11.112;2022-12-07T18:00:14;6.30;99.90
6008;DHT22;3032;49.484;11.112;2022-12-07T18:02:40;6.30;99.90
6008;DHT22;3032;49.484;11.112;2022-12-07T18:05:06;6.40;99.90
6008;DHT22;3032;49.484;11.112;2022-12-07T18:07:32;6.30;99.90
6008;DHT22;3032;49.484;11.112;2022-12-07T18:09:57;6.40;99.90
6008;DHT22;3032;49.484;11.112;2022-12-07T18:12:23;6.30;99.90
6008;DHT22;3032;49.484;11.112;2022-12-07T18:14:49;6.30;99.90
6008;DHT22;3032;49.484;11.112;2022-12-07T18:17:16;6.20;99.90
6008;DHT22;3032;49.484;11.112;2022-12-07T18:19:41;6.20;99.90
6008;DHT22;3032;49.484;11.112;2022-12-07T18:22:07;6.10;99.90
6008;DHT22;3032;49.484;11.112;2022-12-07T18:24:33;6.00;99.90
6008;DHT22;3032;49.484;11.112;2022-12-07T18:26:58;6.10;99.90
6008;DHT22;3032;49.484;11.112;2022-12-07T18:29:24;6.00;99.90
6008;DHT22;3032;49.484;11.112;2022-12-07T18:31:49;5.80;99.90
6008;DHT22;3032;49.484;11.112;2022-12-07T18:34:17;5.70;99.90
6008;DHT22;3032;49.484;11.112;2022-12-07T18:36:46;5.70;99.90
6008;DHT22;3032;49.484;11.112;2022-12-07T18:39:14;5.70;99.90
6008;DHT22;3032;49.484;11.112;2022-12-07T18:41:40;5.60;99.90
6008;DHT22;3032;49.484;11.112;2022-12-07T18:44:06;5.60;99.90
6008;DHT22;3032;49.484;11.112;2022-12-07T18:46:32;5.70;99.90
6008;DHT22;3032;49.484;11.112;2022-12-07T18:48:58;5.70;99.90
6008;DHT22;3032;49.484;11.112;2022-12-07T18:51:25;5.50;99.90
6008;DHT22;3032;49.484;11.112;2022-12-07T18:53:52;5.40;99.90